Snoqualmie River: North Fork station

back to: Snoqualmie river
North Fork station Summary - (NOAA Hydrograph: SNQW1)
Latest reading:
Sat01/19 05:15 am 3.5 ft 453 cfs (+64/hr)
Past 24hr max:
Sat01/19 05:15 am 3.5 ft 453 cfs
Forecasted crests: (published Fri 01/18/19 09:02 pm)
Sat01/19 04:00 pm 4.27 ft 828 cfs
Wed01/23 10:00 am 5.35 ft 1607 cfs

North Fork station Details

Latest Readings

Last 100 Readings:
Sat01/19 05:15 am 3.5 ft 453 cfs
Sat01/19 05:00 am 3.46 ft 437 cfs
Sat01/19 04:45 am 3.45 ft 433 cfs
Sat01/19 04:30 am 3.41 ft 418 cfs
Sat01/19 04:15 am 3.39 ft 410 cfs
Sat01/19 04:00 am 3.37 ft 402 cfs
Sat01/19 03:45 am 3.36 ft 399 cfs
Sat01/19 03:30 am 3.33 ft 388 cfs
Sat01/19 03:15 am 3.32 ft 384 cfs
Sat01/19 03:00 am 3.31 ft 381 cfs
Sat01/19 02:45 am 3.31 ft 381 cfs
Sat01/19 02:30 am 3.29 ft 373 cfs
Sat01/19 02:15 am 3.3 ft 377 cfs
Sat01/19 02:00 am 3.29 ft 373 cfs
Sat01/19 01:45 am 3.29 ft 373 cfs
Sat01/19 01:30 am 3.28 ft 370 cfs
Sat01/19 01:15 am 3.29 ft 373 cfs
Sat01/19 01:00 am 3.27 ft 366 cfs
Sat01/19 12:45 am 3.28 ft 370 cfs
Sat01/19 12:30 am 3.28 ft 370 cfs
Sat01/19 12:15 am 3.27 ft 366 cfs
Sat01/19 12:00 am 3.27 ft 366 cfs
Fri01/18 11:45 pm 3.28 ft 370 cfs
Fri01/18 11:30 pm 3.27 ft 366 cfs
Fri01/18 11:15 pm 3.26 ft 363 cfs
Fri01/18 11:00 pm 3.27 ft 366 cfs
Fri01/18 10:45 pm 3.28 ft 370 cfs
Fri01/18 10:30 pm 3.28 ft 370 cfs
Fri01/18 10:15 pm 3.27 ft 366 cfs
Fri01/18 10:00 pm 3.28 ft 370 cfs
Fri01/18 09:45 pm 3.27 ft 366 cfs
Fri01/18 09:30 pm 3.28 ft 370 cfs
Fri01/18 09:15 pm 3.27 ft 366 cfs
Fri01/18 09:00 pm 3.28 ft 370 cfs
Fri01/18 08:45 pm 3.27 ft 366 cfs
Fri01/18 08:30 pm 3.28 ft 370 cfs
Fri01/18 08:15 pm 3.27 ft 366 cfs
Fri01/18 08:00 pm 3.27 ft 366 cfs
Fri01/18 07:45 pm 3.29 ft 373 cfs
Fri01/18 07:30 pm 3.28 ft 370 cfs
Fri01/18 07:15 pm 3.29 ft 373 cfs
Fri01/18 07:00 pm 3.28 ft 370 cfs
Fri01/18 06:45 pm 3.29 ft 373 cfs
Fri01/18 06:30 pm 3.3 ft 377 cfs
Fri01/18 06:15 pm 3.3 ft 377 cfs
Fri01/18 06:00 pm 3.31 ft 381 cfs
Fri01/18 05:45 pm 3.3 ft 377 cfs
Fri01/18 05:30 pm 3.31 ft 381 cfs
Fri01/18 05:15 pm 3.32 ft 384 cfs
Fri01/18 05:00 pm 3.33 ft 388 cfs
Fri01/18 04:45 pm 3.33 ft 388 cfs
Fri01/18 04:30 pm 3.33 ft 388 cfs
Fri01/18 04:15 pm 3.33 ft 388 cfs
Fri01/18 04:00 pm 3.35 ft 395 cfs
Fri01/18 03:45 pm 3.34 ft 391 cfs
Fri01/18 03:30 pm 3.35 ft 395 cfs
Fri01/18 03:15 pm 3.36 ft 399 cfs
Fri01/18 03:00 pm 3.36 ft 399 cfs
Fri01/18 02:45 pm 3.36 ft 399 cfs
Fri01/18 02:30 pm 3.36 ft 399 cfs
Fri01/18 02:15 pm 3.37 ft 402 cfs
Fri01/18 02:00 pm 3.38 ft 406 cfs
Fri01/18 01:45 pm 3.38 ft 406 cfs
Fri01/18 01:30 pm 3.38 ft 406 cfs
Fri01/18 01:15 pm 3.38 ft 406 cfs
Fri01/18 01:00 pm 3.38 ft 406 cfs
Fri01/18 12:45 pm 3.38 ft 406 cfs
Fri01/18 12:30 pm 3.39 ft 410 cfs
Fri01/18 12:15 pm 3.39 ft 410 cfs
Fri01/18 12:00 pm 3.38 ft 406 cfs
Fri01/18 11:45 am 3.37 ft 402 cfs
Fri01/18 11:30 am 3.37 ft 402 cfs
Fri01/18 11:15 am 3.38 ft 406 cfs
Fri01/18 11:00 am 3.37 ft 402 cfs
Fri01/18 10:45 am 3.35 ft 395 cfs
Fri01/18 10:30 am 3.35 ft 395 cfs
Fri01/18 10:15 am 3.35 ft 395 cfs
Fri01/18 10:00 am 3.34 ft 391 cfs
Fri01/18 09:45 am 3.32 ft 384 cfs
Fri01/18 09:30 am 3.32 ft 384 cfs
Fri01/18 09:15 am 3.31 ft 381 cfs
Fri01/18 09:00 am 3.3 ft 377 cfs
Fri01/18 08:45 am 3.29 ft 373 cfs
Fri01/18 08:30 am 3.28 ft 370 cfs
Fri01/18 08:15 am 3.28 ft 370 cfs
Fri01/18 08:00 am 3.26 ft 363 cfs
Fri01/18 07:45 am 3.26 ft 363 cfs
Fri01/18 07:30 am 3.25 ft 359 cfs
Fri01/18 07:15 am 3.24 ft 356 cfs
Fri01/18 07:00 am 3.23 ft 352 cfs
Fri01/18 06:45 am 3.22 ft 349 cfs
Fri01/18 06:30 am 3.22 ft 349 cfs
Fri01/18 06:15 am 3.2 ft 342 cfs
Fri01/18 06:00 am 3.2 ft 342 cfs
Fri01/18 05:45 am 3.19 ft 339 cfs
Fri01/18 05:30 am 3.18 ft 335 cfs
Fri01/18 05:15 am 3.17 ft 332 cfs
Fri01/18 05:00 am 3.17 ft 332 cfs
Fri01/18 04:45 am 3.16 ft 329 cfs
Fri01/18 04:30 am 3.16 ft 329 cfs

Latest Forecasts

Currently Forecasted Readings:
Fri01/18 10:00 pm 3.25 ft 361 cfs
Sat01/19 04:00 am 4.07 ft 715 cfs
Sat01/19 10:00 am 4.26 ft 823 cfs
Sat01/19 04:00 pm 4.27 ft 828 cfs
Sat01/19 10:00 pm 4.14 ft 756 cfs
Sun01/20 04:00 am 3.95 ft 654 cfs
Sun01/20 10:00 am 3.72 ft 545 cfs
Sun01/20 04:00 pm 3.68 ft 528 cfs
Sun01/20 10:00 pm 3.6 ft 492 cfs
Mon01/21 04:00 am 3.51 ft 456 cfs
Mon01/21 10:00 am 3.41 ft 418 cfs
Mon01/21 04:00 pm 3.33 ft 389 cfs
Mon01/21 10:00 pm 3.28 ft 369 cfs
Tue01/22 04:00 am 3.24 ft 355 cfs
Tue01/22 10:00 am 3.24 ft 356 cfs
Tue01/22 04:00 pm 4.03 ft 698 cfs
Tue01/22 10:00 pm 4.79 ft 1162 cfs
Wed01/23 04:00 am 5.27 ft 1535 cfs
Wed01/23 10:00 am 5.35 ft 1607 cfs
Wed01/23 04:00 pm 5.14 ft 1429 cfs
Wed01/23 10:00 pm 4.79 ft 1165 cfs
Thu01/24 04:00 am 4.45 ft 935 cfs
Thu01/24 10:00 am 4.14 ft 753 cfs
Thu01/24 04:00 pm 3.94 ft 648 cfs
Thu01/24 10:00 pm 3.79 ft 580 cfs
Fri01/25 04:00 am 3.69 ft 532 cfs
Fri01/25 10:00 am 3.6 ft 494 cfs
Fri01/25 04:00 pm 3.52 ft 461 cfs
Fri01/25 10:00 pm 3.45 ft 434 cfs
Sat01/26 04:00 am 3.39 ft 410 cfs
Sat01/26 10:00 am 3.33 ft 388 cfs
Sat01/26 04:00 pm 3.28 ft 368 cfs
Sat01/26 10:00 pm 3.23 ft 351 cfs
Sun01/27 04:00 am 3.18 ft 335 cfs
Sun01/27 10:00 am 3.13 ft 321 cfs
Sun01/27 04:00 pm 3.09 ft 307 cfs
Sun01/27 10:00 pm 3.06 ft 295 cfs
Mon01/28 04:00 am 3.09 ft 305 cfs

Snoqualmie River flood gauge data supplied by the
National Weather Service Northwest River Forecast Center.

Sign up for Floodzilla alerts.